Time;durP1;ratioP1;P1;durP2;ratioP2;P2;SDS_P1;SDS_P2;PMS_P1;PMS_P2;Temp;Humidity;BMP_temperature;BMP_pressure;BME280_temperature;BME280_humidity;BME280_pressure;Samples;Min_cycle;Max_cycle;Signal;HPM_P1;HPM_P2
2021/12/07 00:02:11;;;;;;;22.75;6.93;;;;;;;11.43;100.00;95711.97;5025585;28;20521;-66
2021/12/07 00:04:39;;;;;;;17.73;6.78;;;;;;;11.30;100.00;95708.09;5025818;28;20084;-66
2021/12/07 00:07:06;;;;;;;13.23;6.45;;;;;;;11.51;100.00;95707.91;5029291;28;20517;-66
2021/12/07 00:09:33;;;;;;;12.90;5.30;;;;;;;11.54;100.00;95715.44;5005749;28;20050;-65
2021/12/07 00:12:04;;;;;;;12.00;6.13;;;;;;;11.56;100.00;95704.69;5005796;28;20060;-65
2021/12/07 00:14:39;;;;;;;11.77;5.97;;;;;;;11.54;100.00;95698.78;5004150;28;20072;-67
2021/12/07 00:17:08;;;;;;;12.68;7.25;;;;;;;11.52;100.00;95698.41;5020864;28;20085;-65
2021/12/07 00:19:34;;;;;;;15.20;5.85;;;;;;;11.60;100.00;95705.47;5005381;28;20046;-66
2021/12/07 00:22:04;;;;;;;12.65;6.47;;;;;;;11.47;100.00;95680.22;5005684;28;20133;-65
2021/12/07 00:24:38;;;;;;;19.15;6.22;;;;;;;11.63;100.00;95688.03;5005260;28;20081;-64
2021/12/07 00:27:05;;;;;;;17.02;7.38;;;;;;;11.64;100.00;95689.59;5024827;28;20814;-65
2021/12/07 00:29:32;;;;;;;16.23;5.47;;;;;;;11.63;100.00;95688.03;5025158;28;20049;-64
2021/12/07 00:32:16;;;;;;;13.07;5.72;;;;;;;11.57;100.00;95684.88;5025037;28;20057;-66
2021/12/07 00:35:01;;;;;;;17.88;6.05;;;;;;;11.54;100.00;95684.94;5037823;28;20046;-67
2021/12/07 00:37:36;;;;;;;15.38;5.95;;;;;;;11.56;100.00;95675.00;5023511;28;20168;-65
2021/12/07 00:40:06;;;;;;;15.20;6.55;;;;;;;11.52;100.00;95665.91;5024217;28;20140;-66
2021/12/07 00:42:33;;;;;;;11.13;5.57;;;;;;;11.60;100.00;95677.75;5024912;28;20054;-65
2021/12/07 00:45:01;;;;;;;18.20;6.15;;;;;;;11.21;100.00;95627.38;5024310;28;20504;-65
2021/12/07 00:47:28;;;;;;;14.57;5.70;;;;;;;11.56;100.00;95669.44;5024958;28;20152;-65
2021/12/07 00:49:55;;;;;;;15.27;6.63;;;;;;;11.65;100.00;95669.00;5023114;28;20053;-64
2021/12/07 00:52:23;;;;;;;12.52;7.03;;;;;;;11.68;100.00;95668.19;5039760;28;20057;-65
2021/12/07 00:54:50;;;;;;;15.80;5.80;;;;;;;9.48;100.00;95334.50;5019361;28;20058;-66
2021/12/07 00:57:16;;;;;;;12.52;5.10;;;;;;;11.58;100.00;95652.41;5020799;28;20539;-65
2021/12/07 00:59:43;;;;;;;15.50;6.15;;;;;;;11.63;100.00;95658.31;5003457;28;20054;-66
2021/12/07 01:02:10;;;;;;;11.48;6.18;;;;;;;11.64;100.00;95650.78;5004525;28;20545;-65
2021/12/07 01:04:37;;;;;;;11.65;6.10;;;;;;;11.59;100.00;95653.97;5005185;28;20062;-66
2021/12/07 01:07:12;;;;;;;17.88;5.85;;;;;;;11.64;100.00;95645.22;5004751;28;20046;-65
2021/12/07 01:24:39;;;;;;;14.63;5.22;;;;;;;11.66;100.00;95637.28;5003251;28;20522;-64
2021/12/07 01:26:15;;;;;;;13.05;5.63;;;;;;;10.80;100.00;95501.84;5003856;28;20061;-65
2021/12/07 01:28:45;;;;;;;16.45;6.15;;;;;;;11.68;100.00;95621.03;5003271;28;20054;-65
2021/12/07 01:31:28;;;;;;;10.35;5.75;;;;;;;11.09;100.00;95536.44;5004765;28;20057;-65
2021/12/07 01:34:12;;;;;;;16.77;6.03;;;;;;;11.77;100.00;95626.88;5021056;28;20046;-65
2021/12/07 01:47:29;;;;;;;12.73;6.03;;;;;;;11.15;100.00;95496.78;5003887;28;20062;-67
2021/12/07 02:00:27;;;;;;;19.88;7.20;;;;;;;11.71;100.00;95573.81;5024023;28;20057;-65
2021/12/07 02:02:54;;;;;;;16.23;5.90;;;;;;;11.88;100.00;95583.16;5023859;28;20065;-65
2021/12/07 02:05:22;;;;;;;15.70;7.15;;;;;;;11.91;100.00;95582.34;5021133;28;20432;-67
2021/12/07 02:07:49;;;;;;;17.73;6.90;;;;;;;11.90;100.00;95566.91;5004684;28;20050;-66
2021/12/07 02:10:20;;;;;;;22.05;6.63;;;;;;;11.85;100.00;95564.56;5004236;28;20050;-66
2021/12/07 02:12:49;;;;;;;19.30;6.18;;;;;;;11.90;100.00;95580.75;5004140;28;20045;-65
2021/12/07 02:15:19;;;;;;;19.08;6.28;;;;;;;11.80;100.00;95556.69;5004384;28;20050;-65
2021/12/07 02:17:46;;;;;;;9.98;5.47;;;;;;;11.96;100.00;95568.00;5004286;28;20532;-64
2021/12/07 02:20:14;;;;;;;16.15;5.45;;;;;;;11.94;100.00;95579.53;5004199;28;20534;-66
2021/12/07 02:22:42;;;;;;;13.73;5.78;;;;;;;11.32;100.00;95483.91;5020285;28;20069;-65
2021/12/07 02:25:11;;;;;;;18.42;6.60;;;;;;;11.46;100.00;95492.09;5026923;28;20049;-65
2021/12/07 02:27:39;;;;;;;10.65;6.57;;;;;;;11.93;100.00;95579.94;5008603;28;20046;-65
2021/12/07 02:30:11;;;;;;;16.10;6.65;;;;;;;11.96;100.00;95581.88;5007912;28;20509;-66
2021/12/07 02:32:39;;;;;;;12.00;7.00;;;;;;;11.95;100.00;95560.88;5027459;28;20564;-65
2021/12/07 02:35:09;;;;;;;13.43;6.20;;;;;;;11.96;100.00;95570.78;5027088;28;20062;-65
2021/12/07 02:37:36;;;;;;;21.45;9.00;;;;;;;11.77;100.00;95543.66;5026966;28;20504;-67
2021/12/07 02:40:05;;;;;;;19.65;7.68;;;;;;;11.91;100.00;95572.03;5027291;28;20049;-66
2021/12/07 02:42:32;;;;;;;14.45;7.00;;;;;;;11.90;100.00;95561.34;5027170;28;20056;-67
2021/12/07 02:44:59;;;;;;;18.20;6.57;;;;;;;11.95;100.00;95555.31;5026693;28;20072;-64
2021/12/07 02:47:26;;;;;;;9.68;5.50;;;;;;;12.00;100.00;95555.66;5026372;28;20058;-66
2021/12/07 02:49:52;;;;;;;12.77;6.05;;;;;;;12.00;100.00;95557.63;5025672;28;20610;-67
2021/12/07 02:52:19;;;;;;;14.93;5.88;;;;;;;11.96;100.00;95557.69;5027119;28;20057;-65
2021/12/07 02:54:49;;;;;;;11.13;5.43;;;;;;;11.92;100.00;95545.03;5014577;28;20058;-66
2021/12/07 02:57:19;;;;;;;16.40;7.38;;;;;;;11.64;100.00;95520.44;5007191;28;20058;-67
2021/12/07 02:59:56;;;;;;;21.20;6.65;;;;;;;11.91;100.00;95549.03;5007088;28;20050;-67
2021/12/07 03:02:23;;;;;;;13.98;6.18;;;;;;;11.49;100.00;95477.41;5003047;28;20072;-67
2021/12/07 03:05:01;;;;;;;12.55;5.28;;;;;;;11.92;100.00;95556.16;5005532;28;20523;-67
2021/12/07 03:26:37;;;;;;;12.30;6.57;;;;;;;11.59;100.00;95526.41;5006531;28;20050;-63
2021/12/07 03:29:03;;;;;;;14.30;6.47;;;;;;;11.58;100.00;95528.41;5004954;28;20050;-64
2021/12/07 03:31:30;;;;;;;19.08;7.85;;;;;;;11.56;100.00;95528.03;5005125;28;20505;-62
2021/12/07 03:33:59;;;;;;;19.05;8.52;;;;;;;11.56;100.00;95521.69;5011005;28;20636;-62
2021/12/07 03:36:26;;;;;;;39.53;12.82;;;;;;;11.52;100.00;95515.41;5006370;28;20108;-63
2021/12/07 03:38:54;;;;;;;13.73;7.05;;;;;;;11.54;100.00;95518.56;5004787;28;20050;-62
2021/12/07 03:41:21;;;;;;;12.43;5.95;;;;;;;11.49;100.00;95519.78;5014796;28;20050;-61
2021/12/07 03:43:48;;;;;;;14.65;4.68;;;;;;;11.51;100.00;95524.91;5025118;28;20156;-62
2021/12/07 03:46:16;;;;;;;18.48;6.78;;;;;;;11.49;100.00;95521.78;5005735;28;20049;-62
2021/12/07 03:48:43;;;;;;;10.85;5.35;;;;;;;11.48;100.00;95534.03;5005869;28;20057;-62
2021/12/07 03:51:11;;;;;;;17.55;5.70;;;;;;;10.84;100.00;95434.19;5006002;28;20057;-63
2021/12/07 03:53:38;;;;;;;10.45;4.93;;;;;;;11.42;100.00;95522.63;5014382;28;20132;-62
2021/12/07 03:56:06;;;;;;;16.00;6.38;;;;;;;11.47;100.00;95521.41;5025879;28;20444;-62
2021/12/07 03:58:34;;;;;;;9.95;5.82;;;;;;;11.37;100.00;95520.31;5024111;28;20432;-63
2021/12/07 04:01:02;;;;;;;12.60;5.53;;;;;;;11.35;100.00;95528.25;5024105;28;20600;-63
2021/12/07 04:03:33;;;;;;;15.00;6.38;;;;;;;10.87;100.00;95452.75;5025376;28;20065;-61
2021/12/07 04:06:05;;;;;;;13.15;6.20;;;;;;;11.38;100.00;95537.75;5020524;28;20060;-62
2021/12/07 04:08:34;;;;;;;12.07;5.75;;;;;;;11.28;100.00;95510.91;5004594;28;20068;-63
2021/12/07 04:11:02;;;;;;;13.43;6.18;;;;;;;10.93;100.00;95455.84;5005443;28;20483;-63
2021/12/07 04:13:30;;;;;;;11.27;5.22;;;;;;;11.30;100.00;95519.59;5005306;28;20152;-64
2021/12/07 04:15:58;;;;;;;12.75;5.47;;;;;;;11.18;100.00;95520.09;5005186;28;20053;-64
2021/12/07 04:18:27;;;;;;;17.70;5.63;;;;;;;11.28;100.00;95538.63;5003925;28;20062;-63
2021/12/07 04:20:54;;;;;;;12.70;6.43;;;;;;;11.23;100.00;95536.28;5005326;28;20081;-63
2021/12/07 04:23:21;;;;;;;10.98;4.95;;;;;;;11.23;100.00;95527.97;5005219;28;21846;-62
2021/12/07 04:25:48;;;;;;;15.02;6.35;;;;;;;11.19;100.00;95530.00;5025072;28;20424;-63
2021/12/07 04:28:15;;;;;;;13.82;5.93;;;;;;;11.12;100.00;95524.53;5023235;28;20444;-64
2021/12/07 04:30:42;;;;;;;12.27;5.53;;;;;;;11.10;100.00;95515.81;5025200;28;20058;-62
2021/12/07 04:33:11;;;;;;;11.93;5.82;;;;;;;11.06;100.00;95515.09;5015462;28;20080;-62
2021/12/07 04:35:44;;;;;;;12.05;6.40;;;;;;;10.93;100.00;95505.72;5005594;28;20050;-63
2021/12/07 04:38:11;;;;;;;12.52;6.03;;;;;;;11.03;100.00;95521.44;5003636;28;20045;-64
2021/12/07 04:40:39;;;;;;;8.20;5.80;;;;;;;11.00;100.00;95523.03;5005859;28;20444;-63
2021/12/07 04:43:07;;;;;;;19.95;7.43;;;;;;;10.98;100.00;95519.13;5023767;28;20049;-63
2021/12/07 04:59:16;;;;;;;35.58;12.30;;;;;;;11.06;100.00;95520.63;5024658;28;20056;-61
2021/12/07 05:01:43;;;;;;;34.22;11.52;;;;;;;11.08;100.00;95526.56;5020715;28;20064;-62
2021/12/07 05:04:16;;;;;;;20.77;8.80;;;;;;;11.08;100.00;95518.25;5035821;28;20602;-62
2021/12/07 05:06:53;;;;;;;12.60;7.97;;;;;;;10.49;100.00;95437.28;5044659;28;20059;-63
2021/12/07 05:14:38;;;;;;;23.98;10.57;;;;;;;10.99;100.00;95515.94;5024733;28;20061;-61
2021/12/07 05:25:28;;;;;;;15.98;8.88;;;;;;;10.93;100.00;95494.63;5024285;28;20049;-65
2021/12/07 05:38:53;;;;;;;16.60;9.93;;;;;;;11.19;100.00;95521.69;5023883;28;20523;-63
2021/12/07 05:41:22;;;;;;;29.70;11.23;;;;;;;10.42;100.00;95407.69;5028065;28;20056;-62
2021/12/07 05:43:49;;;;;;;25.02;11.40;;;;;;;10.63;100.00;95498.84;5032996;28;20433;-63
2021/12/07 05:46:16;;;;;;;15.63;8.05;;;;;;;11.11;100.00;95534.03;5024477;28;20060;-64
2021/12/07 05:48:43;;;;;;;25.15;12.02;;;;;;;10.81;100.00;95503.44;5023907;28;20075;-64
2021/12/07 05:51:10;;;;;;;30.17;12.70;;;;;;;10.19;100.00;95428.84;5022575;28;20510;-62
2021/12/07 05:53:37;;;;;;;49.20;22.25;;;;;;;10.92;100.00;95509.69;5022989;28;20417;-62
2021/12/07 05:56:04;;;;;;;54.65;21.85;;;;;;;11.22;100.00;95568.00;5025307;28;20059;-62
2021/12/07 05:58:31;;;;;;;49.95;23.27;;;;;;;11.26;100.00;95565.94;5027838;28;20053;-65
2021/12/07 06:00:58;;;;;;;35.28;16.17;;;;;;;11.05;100.00;95552.31;5028265;28;20550;-63
2021/12/07 06:03:26;;;;;;;36.55;19.35;;;;;;;10.77;100.00;95541.44;5023539;28;20158;-63
2021/12/07 06:05:53;;;;;;;33.28;14.95;;;;;;;10.28;100.00;95482.50;5008242;28;20062;-64
2021/12/07 06:08:21;;;;;;;29.77;15.82;;;;;;;10.69;100.00;95535.19;5008319;28;20046;-64
2021/12/07 06:10:48;;;;;;;23.30;11.32;;;;;;;10.63;100.00;95522.97;5007563;28;20050;-64
2021/12/07 06:13:20;;;;;;;17.55;9.27;;;;;;;9.98;100.00;95417.88;5007723;28;20164;-63
2021/12/07 06:15:48;;;;;;;24.27;11.15;;;;;;;10.65;100.00;95513.06;5006547;28;20053;-64
2021/12/07 06:18:15;;;;;;;13.38;7.10;;;;;;;10.66;100.00;95508.31;5010113;28;20115;-64
2021/12/07 06:20:42;;;;;;;16.15;7.68;;;;;;;10.69;100.00;95508.28;5007322;28;20049;-64
2021/12/07 06:23:13;;;;;;;14.02;6.30;;;;;;;10.63;100.00;95515.47;5007729;28;20054;-64
2021/12/07 06:25:40;;;;;;;14.30;8.07;;;;;;;10.48;100.00;95519.53;5010529;28;20512;-64
2021/12/07 06:28:08;;;;;;;18.45;7.70;;;;;;;9.58;100.00;95394.44;5025965;28;20056;-65
2021/12/07 06:30:41;;;;;;;15.23;6.53;;;;;;;10.10;100.00;95487.38;5027281;28;20050;-67
2021/12/07 06:33:08;;;;;;;13.63;7.03;;;;;;;10.51;100.00;95527.00;5027170;28;20056;-66
2021/12/07 06:35:35;;;;;;;15.13;8.13;;;;;;;10.33;100.00;95501.47;5025860;28;20054;-65
2021/12/07 06:38:02;;;;;;;16.85;7.82;;;;;;;10.33;100.00;95509.75;5025415;28;20064;-65
2021/12/07 06:40:28;;;;;;;19.17;7.80;;;;;;;10.48;100.00;95541.66;5025859;28;20056;-64
2021/12/07 06:42:59;;;;;;;14.07;7.72;;;;;;;10.30;100.00;95505.03;5010303;28;20112;-66
2021/12/07 06:45:29;;;;;;;17.67;7.18;;;;;;;10.65;100.00;95537.97;5007094;28;20123;-66
2021/12/07 06:47:56;;;;;;;17.38;7.65;;;;;;;8.77;100.00;95226.41;5006615;28;20050;-61
2021/12/07 06:50:25;;;;;;;17.77;7.88;;;;;;;10.03;100.00;95437.63;5009976;28;20063;-62
2021/12/07 06:52:52;;;;;;;12.68;7.90;;;;;;;10.28;100.00;95449.31;5016158;28;20050;-70
2021/12/07 06:55:19;;;;;;;12.13;6.68;;;;;;;10.42;100.00;95499.00;5008238;28;20469;-63
2021/12/07 06:57:46;;;;;;;16.70;7.07;;;;;;;10.42;100.00;95504.56;5016874;28;20104;-70
2021/12/07 07:00:14;;;;;;;17.10;8.10;;;;;;;10.46;100.00;95499.75;5017246;28;20058;-64
2021/12/07 07:02:41;;;;;;;13.45;6.95;;;;;;;10.77;100.00;95524.84;5011953;28;20073;-68
2021/12/07 07:05:09;;;;;;;10.38;5.15;;;;;;;10.57;100.00;95478.31;5015419;28;20049;-62
2021/12/07 07:07:38;;;;;;;8.40;5.05;;;;;;;10.51;100.00;95507.63;5014655;28;20089;-68
2021/12/07 07:10:06;;;;;;;12.60;6.32;;;;;;;10.46;100.00;95499.75;5018876;28;20046;-61
2021/12/07 07:12:33;;;;;;;12.50;5.93;;;;;;;10.64;100.00;95486.56;5016038;28;20121;-62
2021/12/07 07:15:00;;;;;;;16.67;8.25;;;;;;;10.61;100.00;95487.41;5023619;28;20131;-70
2021/12/07 07:17:26;;;;;;;15.10;8.45;;;;;;;10.30;100.00;95462.75;5022028;28;20139;-73
2021/12/07 07:19:53;;;;;;;17.35;9.10;;;;;;;10.02;100.00;95402.81;5021833;28;20512;-69
2021/12/07 07:22:20;;;;;;;19.23;8.48;;;;;;;10.40;100.00;95450.81;5020542;28;20054;-68
2021/12/07 07:24:47;;;;;;;20.38;8.73;;;;;;;9.40;100.00;95279.69;5015361;28;20049;-63
2021/12/07 07:27:14;;;;;;;27.70;11.75;;;;;;;10.18;100.00;95345.03;5005978;28;20054;-70
2021/12/07 07:29:40;;;;;;;18.83;10.63;;;;;;;11.26;100.00;95483.59;5016078;28;20061;-64
2021/12/07 07:32:07;;;;;;;23.42;11.05;;;;;;;11.38;100.00;95482.28;5018569;28;20050;-62
2021/12/07 07:34:34;;;;;;;15.73;8.52;;;;;;;11.07;100.00;95494.47;5013561;28;20041;-70
2021/12/07 07:37:01;;;;;;;16.45;8.68;;;;;;;10.84;100.00;95436.97;5017583;28;20049;-71
2021/12/07 07:39:27;;;;;;;19.13;9.48;;;;;;;11.29;100.00;95479.22;5013958;28;20045;-63
2021/12/07 07:41:54;;;;;;;17.27;9.65;;;;;;;11.43;100.00;95487.41;5013546;28;20487;-63
2021/12/07 07:44:21;;;;;;;21.58;10.38;;;;;;;11.76;100.00;95492.16;5020091;28;20156;-62
2021/12/07 07:46:48;;;;;;;29.70;13.25;;;;;;;11.66;100.00;95476.44;5014384;28;20172;-62
2021/12/07 07:49:15;;;;;;;19.17;8.75;;;;;;;11.58;100.00;95438.88;5009782;28;20129;-64
2021/12/07 07:51:41;;;;;;;13.88;7.07;;;;;;;12.04;100.00;95497.34;5022267;28;20060;-71
2021/12/07 07:54:09;;;;;;;15.63;7.00;;;;;;;12.02;100.00;95505.28;5011208;28;20157;-63
2021/12/07 07:56:36;;;;;;;7.85;5.80;;;;;;;11.98;100.00;95521.97;5019355;28;20050;-70
2021/12/07 07:59:04;;;;;;;10.07;5.50;;;;;;;11.79;100.00;95480.25;5012021;28;20129;-68
2021/12/07 08:01:31;;;;;;;9.23;5.70;;;;;;;11.85;100.00;95500.75;5015321;28;20058;-71
2021/12/07 08:04:01;;;;;;;8.55;4.88;;;;;;;11.15;100.00;95418.41;5005366;28;20049;-66
2021/12/07 08:06:29;;;;;;;11.60;5.15;;;;;;;11.80;100.00;95509.53;5015674;28;20426;-60
2021/12/07 08:08:57;;;;;;;9.75;4.90;;;;;;;11.28;100.00;95423.00;5014639;28;20081;-60
2021/12/07 08:11:24;;;;;;;10.18;5.80;;;;;;;11.30;100.00;95436.44;5013940;28;20598;-70
2021/12/07 08:13:54;;;;;;;8.60;4.47;;;;;;;11.33;100.00;95441.16;5010963;28;20126;-61
2021/12/07 08:16:20;;;;;;;6.55;4.25;;;;;;;11.79;100.00;95507.97;5019669;28;20160;-61
2021/12/07 08:18:50;;;;;;;10.20;5.00;;;;;;;11.87;100.00;95503.91;5014893;28;20059;-69
2021/12/07 08:21:17;;;;;;;6.70;3.40;;;;;;;9.61;100.00;95138.56;5014350;28;20138;-68
2021/12/07 08:23:45;;;;;;;10.23;5.05;;;;;;;12.02;100.00;95488.63;5017256;28;20045;-70
2021/12/07 08:26:16;;;;;;;8.30;3.85;;;;;;;11.86;100.00;95447.63;5011961;28;20050;-68
2021/12/07 08:28:48;;;;;;;8.90;4.03;;;;;;;11.80;100.00;95449.31;5019403;28;20054;-69
2021/12/07 08:31:15;;;;;;;16.55;6.38;;;;;;;12.27;100.00;95494.63;5011510;28;20124;-66
2021/12/07 08:33:42;;;;;;;13.38;5.55;;;;;;;12.07;100.00;95463.19;5007549;28;20500;-68
2021/12/07 08:36:08;;;;;;;9.50;4.30;;;;;;;12.21;100.00;95463.00;5010702;28;20049;-71
2021/12/07 08:38:35;;;;;;;4.97;3.30;;;;;;;12.11;100.00;95461.94;5013016;28;20508;-66
2021/12/07 08:41:03;;;;;;;13.90;4.28;;;;;;;11.52;100.00;95365.69;5019049;28;20412;-68
2021/12/07 08:43:31;;;;;;;13.18;3.90;;;;;;;12.30;100.00;95499.34;5017759;28;20059;-67
2021/12/07 08:46:00;;;;;;;7.78;2.50;;;;;;;11.23;100.00;95353.38;5005922;28;20037;-68
2021/12/07 08:48:28;;;;;;;9.75;3.10;;;;;;;11.73;100.00;95437.50;5011353;28;20046;-67
2021/12/07 08:50:57;;;;;;;13.07;6.65;;;;;;;12.19;100.00;95507.03;5012327;28;20050;-63
2021/12/07 08:53:24;;;;;;;9.93;3.78;;;;;;;11.99;100.00;95456.19;5011174;28;20053;-64
2021/12/07 09:01:27;;;;;;;12.60;3.45;;;;;;;11.66;100.00;95415.44;5010931;28;20050;-68
2021/12/07 09:03:56;;;;;;;7.93;2.67;;;;;;;11.80;100.00;95426.31;5007971;28;20060;-72
2021/12/07 09:06:24;;;;;;;9.07;2.60;;;;;;;12.10;100.00;95467.91;5006547;28;20153;-66
2021/12/07 09:08:54;;;;;;;9.40;2.97;;;;;;;12.14;100.00;95463.06;5015168;28;20071;-62
2021/12/07 09:11:21;;;;;;;9.93;3.85;;;;;;;12.31;100.00;95464.84;5013444;28;20124;-65
2021/12/07 09:13:48;;;;;;;10.50;3.70;;;;;;;12.23;100.00;95452.25;5006197;28;20077;-68
2021/12/07 09:16:18;;;;;;;6.22;2.78;;;;;;;12.10;100.00;95429.06;5015832;28;20104;-69
2021/12/07 09:18:46;;;;;;;6.38;2.92;;;;;;;12.37;100.00;95465.13;5009537;28;20042;-64
2021/12/07 09:21:14;;;;;;;7.70;3.00;;;;;;;12.17;100.00;95428.97;5016371;28;20498;-69
2021/12/07 09:23:41;;;;;;;12.07;3.08;;;;;;;12.43;100.00;95458.69;5004073;28;20081;-64
2021/12/07 09:26:09;;;;;;;14.45;6.32;;;;;;;12.56;100.00;95451.34;5017774;28;20523;-65
2021/12/07 09:28:37;;;;;;;8.05;4.13;;;;;;;11.94;100.00;95349.22;5012803;28;20100;-67
2021/12/07 09:31:06;;;;;;;13.90;3.55;;;;;;;12.67;100.00;95432.50;5008864;28;20107;-64
2021/12/07 09:33:33;;;;;;;7.63;2.78;;;;;;;12.59;100.00;95406.06;5017788;28;20064;-67
2021/12/07 09:36:02;;;;;;;8.93;3.00;;;;;;;12.78;100.00;95441.44;5015867;28;20929;-68
2021/12/07 09:38:29;;;;;;;10.75;3.85;;;;;;;12.87;100.00;95444.44;5016155;28;20092;-67
2021/12/07 09:40:56;;;;;;;6.65;2.90;;;;;;;12.40;100.00;95365.13;5013148;28;20049;-64
2021/12/07 09:43:23;;;;;;;17.10;3.70;;;;;;;12.95;100.00;95412.53;5022691;28;20060;-65
2021/12/07 09:45:50;;;;;;;13.00;4.32;;;;;;;12.93;100.00;95403.84;5011072;28;20580;-62
2021/12/07 09:48:18;;;;;;;10.48;4.80;;;;;;;12.91;100.00;95406.28;5008369;28;20045;-62
2021/12/07 09:50:48;;;;;;;6.63;3.97;;;;;;;12.19;100.00;95290.53;5023652;28;20053;-63
2021/12/07 09:53:15;;;;;;;16.90;4.68;;;;;;;12.88;100.00;95407.09;5020320;28;20052;-63
2021/12/07 09:55:44;;;;;;;6.72;3.65;;;;;;;12.85;100.00;95401.63;5014267;28;20501;-64
2021/12/07 09:58:10;;;;;;;8.02;3.78;;;;;;;12.22;100.00;95286.91;5007126;28;20718;-62
2021/12/07 10:00:38;;;;;;;15.15;4.97;;;;;;;12.72;100.00;95351.47;5007503;28;20045;-63
2021/12/07 10:03:05;;;;;;;10.35;4.18;;;;;;;12.63;100.00;95367.88;5009514;28;20054;-63
2021/12/07 10:05:35;;;;;;;7.60;3.65;;;;;;;12.86;100.00;95381.75;5022308;28;20057;-62
2021/12/07 10:08:04;;;;;;;13.02;4.38;;;;;;;12.99;99.44;95402.13;5006826;28;20054;-63
2021/12/07 10:10:34;;;;;;;10.25;4.45;;;;;;;12.57;99.79;95358.47;5023567;28;20053;-64
2021/12/07 10:13:02;;;;;;;9.88;4.28;;;;;;;12.81;100.00;95378.66;5025644;28;20579;-64
2021/12/07 10:15:29;;;;;;;10.50;3.85;;;;;;;12.40;100.00;95354.00;5027126;28;20056;-62
2021/12/07 10:18:14;;;;;;;14.45;5.53;;;;;;;12.27;100.00;95305.84;5023668;28;20057;-62
2021/12/07 10:21:03;;;;;;;;;;;;;;;12.64;100.00;95380.56;5019706;28;20056;-62
2021/12/07 10:23:37;;;;;;;13.68;6.05;;;;;;;12.16;100.00;95333.00;5025002;28;20016;-62
2021/12/07 10:26:07;;;;;;;8.75;5.05;;;;;;;12.42;100.00;95379.38;5005381;28;20054;-63
2021/12/07 10:28:39;;;;;;;16.67;5.63;;;;;;;12.48;100.00;95371.34;5011529;28;20053;-63
2021/12/07 10:31:08;;;;;;;10.82;4.43;;;;;;;12.56;100.00;95351.34;5020686;28;20108;-62
2021/12/07 10:34:14;;;;;;;22.52;8.15;;;;;;;12.51;100.00;95337.94;5021654;28;20053;-62
2021/12/07 10:36:45;;;;;;;11.82;4.90;;;;;;;12.45;100.00;95317.44;5015218;28;20068;-61
2021/12/07 10:39:16;;;;;;;14.23;6.70;;;;;;;12.61;100.00;95320.31;5016751;28;20053;-64
2021/12/07 10:42:04;;;;;;;13.18;5.78;;;;;;;12.77;99.40;95323.16;5014645;28;20064;-64
2021/12/07 10:44:51;;;;;;;18.75;4.50;;;;;;;10.81;98.93;95049.28;5026822;28;20045;-66
2021/12/07 10:47:22;;;;;;;15.63;5.35;;;;;;;12.64;97.79;95329.78;5015656;28;20216;-66
2021/12/07 10:49:55;;;;;;;17.05;6.20;;;;;;;12.53;98.99;95306.97;5006727;28;20057;-63
2021/12/07 10:52:35;;;;;;;32.95;10.63;;;;;;;12.72;98.71;95331.22;5013348;28;20056;-64
2021/12/07 10:55:15;;;;;;;18.02;4.20;;;;;;;12.69;96.74;95321.75;5025908;28;20045;-63
2021/12/07 10:57:51;;;;;;;16.35;7.07;;;;;;;12.61;97.55;95331.44;5012619;28;20077;-66
2021/12/07 11:00:20;;;;;;;14.65;6.03;;;;;;;12.68;98.93;95324.94;5007893;28;20061;-65
2021/12/07 11:02:52;;;;;;;16.67;6.72;;;;;;;12.77;98.98;95328.72;5021838;28;20648;-64
2021/12/07 11:05:34;;;;;;;29.30;12.88;;;;;;;12.76;99.51;95316.03;5020641;28;20057;-64
2021/12/07 11:08:05;;;;;;;18.27;5.20;;;;;;;12.15;98.14;95248.19;5023456;28;20050;-63
2021/12/07 11:10:37;;;;;;;18.35;5.70;;;;;;;12.68;99.59;95311.84;5018562;28;20053;-66
2021/12/07 11:15:48;;;;;;;12.32;4.45;;;;;;;12.71;100.00;95302.66;5025349;28;20048;-63
2021/12/07 11:18:18;;;;;;;18.33;7.05;;;;;;;11.30;100.00;95070.59;5009545;28;20045;-65
2021/12/07 11:20:44;;;;;;;19.83;6.53;;;;;;;12.65;100.00;95259.91;5020771;28;20062;-65
2021/12/07 11:23:16;;;;;;;18.05;5.95;;;;;;;12.88;98.11;95268.16;5006045;28;20065;-64
2021/12/07 11:31:19;;;;;;;15.32;5.78;;;;;;;13.06;96.80;95285.28;5007456;28;20439;-65
2021/12/07 11:33:49;;;;;;;17.42;5.20;;;;;;;13.11;95.30;95282.03;5012763;28;20061;-65
2021/12/07 11:36:28;;;;;;;25.75;9.73;;;;;;;13.17;93.99;95269.19;5025378;28;20049;-65
2021/12/07 11:38:56;;;;;;;15.77;6.13;;;;;;;13.10;94.15;95280.44;5007259;28;20524;-65
2021/12/07 11:41:32;;;;;;;19.63;6.25;;;;;;;13.29;91.66;95265.72;5010331;28;20500;-65
2021/12/07 11:44:07;;;;;;;17.52;5.45;;;;;;;13.29;90.17;95260.16;5008880;28;20057;-65
2021/12/07 11:46:45;;;;;;;10.30;4.20;;;;;;;12.85;92.28;95207.91;5016242;28;20524;-65
2021/12/07 11:49:14;;;;;;;9.38;4.25;;;;;;;13.21;90.09;95258.78;5023458;28;20049;-64
2021/12/07 11:51:42;;;;;;;16.67;4.45;;;;;;;12.70;91.55;95192.75;5008850;28;20402;-64
2021/12/07 11:54:11;;;;;;;11.80;3.60;;;;;;;13.16;89.61;95250.94;5004497;28;20064;-62
2021/12/07 11:56:39;;;;;;;15.55;5.10;;;;;;;13.06;90.52;95257.50;5018649;28;20057;-62
2021/12/07 11:59:06;;;;;;;21.55;7.93;;;;;;;12.73;92.85;95216.09;5021006;28;20507;-63
2021/12/07 12:01:43;;;;;;;15.93;6.93;;;;;;;13.00;93.19;95237.00;5021534;28;20057;-62
2021/12/07 12:04:10;;;;;;;14.18;4.35;;;;;;;12.58;90.88;95168.41;5014863;28;20526;-65
2021/12/07 12:06:38;;;;;;;12.52;5.38;;;;;;;13.14;91.05;95250.59;5016633;28;20338;-62
2021/12/07 12:09:05;;;;;;;15.77;5.60;;;;;;;12.92;92.27;95218.06;5015017;28;20050;-63
2021/12/07 12:12:29;;;;;;;16.88;5.55;;;;;;;13.08;91.42;95246.75;5011095;28;20069;-68
2021/12/07 12:15:24;;;;;;;4.70;3.17;;;;;;;13.11;90.76;95248.66;5037228;28;20048;-69
2021/12/07 12:18:15;;;;;;;14.15;6.07;;;;;;;12.98;91.18;95219.94;5041814;28;20147;-64
2021/12/07 12:21:18;;;;;;;23.25;8.48;;;;;;;13.23;91.15;95250.78;5005911;28;20491;-67
2021/12/07 12:24:07;;;;;;;12.03;4.00;;;;;;;13.21;89.48;95253.22;5014417;28;20053;-68
2021/12/07 12:26:34;;;;;;;15.07;7.05;;;;;;;13.44;91.17;95253.09;5012821;28;20296;-67
2021/12/07 12:29:14;;;;;;;17.50;5.55;;;;;;;12.58;87.94;95143.44;5007922;28;20050;-65
2021/12/07 12:32:08;;;;;;;15.60;4.95;;;;;;;13.28;87.58;95250.25;5020408;28;20060;-64
2021/12/07 12:34:38;;;;;;;14.73;4.47;;;;;;;13.03;89.00;95258.38;5012585;28;20045;-64
2021/12/07 12:37:04;;;;;;;13.90;4.57;;;;;;;13.11;89.52;95245.88;5012513;28;20050;-62
2021/12/07 12:39:43;;;;;;;20.88;4.32;;;;;;;12.61;89.03;95181.44;5009459;28;20521;-63
2021/12/07 12:42:14;;;;;;;17.83;4.88;;;;;;;13.15;88.69;95260.47;5013183;28;20057;-66
2021/12/07 12:44:41;;;;;;;21.63;4.95;;;;;;;13.07;89.12;95236.81;5015112;28;20056;-63
2021/12/07 12:47:08;;;;;;;12.45;4.30;;;;;;;13.17;88.65;95255.28;5013121;28;20052;-66
2021/12/07 12:49:38;;;;;;;20.20;5.35;;;;;;;13.18;87.66;95258.84;5009003;28;20053;-65
2021/12/07 12:52:06;;;;;;;11.70;4.10;;;;;;;12.72;87.63;95187.56;5020992;28;20072;-67
2021/12/07 12:54:44;;;;;;;11.80;3.88;;;;;;;12.72;88.73;95204.22;5007463;28;20054;-66
2021/12/07 12:57:15;;;;;;;24.70;6.85;;;;;;;12.46;89.22;95180.16;5004983;28;20066;-66
2021/12/07 12:59:46;;;;;;;16.83;10.73;;;;;;;12.15;89.50;95148.28;5005266;28;20049;-73
2021/12/07 13:02:13;;;;;;;12.57;4.68;;;;;;;12.77;89.47;95245.38;5015557;28;20054;-63
2021/12/07 13:04:41;;;;;;;13.40;4.82;;;;;;;12.49;90.48;95234.84;5020759;28;20516;-65
2021/12/07 13:07:24;;;;;;;12.32;4.22;;;;;;;12.78;92.85;95241.41;5008471;28;20516;-62
2021/12/07 13:09:57;;;;;;;19.38;4.40;;;;;;;12.68;91.96;95238.81;5015355;28;20053;-65
2021/12/07 13:12:34;;;;;;;16.60;3.95;;;;;;;12.58;93.30;95237.84;5018073;28;20049;-63
2021/12/07 13:15:07;;;;;;;12.20;4.47;;;;;;;12.59;91.97;95242.19;5009598;28;20137;-67
2021/12/07 13:17:48;;;;;;;20.02;5.18;;;;;;;10.78;93.03;94997.50;5018344;28;20054;-69
2021/12/07 13:20:26;;;;;;;9.40;3.28;;;;;;;12.45;92.24;95250.78;5012140;28;20085;-63